Time;durP1;ratioP1;P1;durP2;ratioP2;P2;SDS_P1;SDS_P2;PMS_P1;PMS_P2;Temp;Humidity;BMP_temperature;BMP_pressure;BME280_temperature;BME280_humidity;BME280_pressure;Samples;Min_cycle;Max_cycle;Signal;HPM_P1;HPM_P2
2022/01/20 06:33:40;;;;;;;;;;;;;;;2.76;100.00;98850.78;5601165;23;19994;-68
2022/01/20 06:36:09;;;;;;;;;;;;;;;2.52;100.00;98834.78;4847256;29;20327;-69
2022/01/20 06:38:37;;;;;;;;;;;;;;;2.47;100.00;98839.72;4847291;29;19956;-69
2022/01/20 06:41:04;;;;;;;;;;;;;;;2.45;100.00;98847.50;4847412;29;20334;-68
2022/01/20 06:43:39;;;;;;;;;;;;;;;2.33;100.00;98839.91;4847621;29;19961;-68
2022/01/20 06:46:07;;;;;;;;;;;;;;;2.27;100.00;98844.00;4847619;29;19956;-68
2022/01/20 06:48:51;;;;;;;;;;;;;;;2.28;100.00;98855.84;4846741;29;19952;-68
2022/01/20 06:51:29;;;;;;;;;;;;;;;2.35;100.00;98869.94;4847874;29;19980;-68
2022/01/20 06:53:57;;;;;;;;;;;;;;;2.38;100.00;98872.03;4847447;29;19962;-69
2022/01/20 06:56:25;;;;;;;;;;;;;;;2.47;100.00;98879.13;4862312;29;19956;-68
2022/01/20 06:59:05;;;;;;;;;;;;;;;2.40;100.00;98867.81;4833787;29;19955;-68
2022/01/20 07:01:32;;;;;;;;;;;;;;;2.35;100.00;98858.88;4842416;29;19956;-68
2022/01/20 07:04:00;;;;;;;;;;;;;;;2.32;100.00;98859.56;4846241;29;19958;-68
2022/01/20 07:06:29;;;;;;;;;;;;;;;2.29;100.00;98858.28;4848591;29;19955;-68
2022/01/20 07:09:17;;;;;;;;;;;;;;;2.31;100.00;98874.50;4822073;29;19955;-68
2022/01/20 07:11:46;;;;;;;;;;;;;;;2.33;100.00;98881.31;4846134;29;20260;-69
2022/01/20 07:14:15;;;;;;;;;;;;;;;2.28;100.00;98887.00;4846711;29;19956;-68
2022/01/20 07:16:42;;;;;;;;;;;;;;;2.25;100.00;98881.34;4847221;29;19958;-68
2022/01/20 07:19:10;;;;;;;;;;;;;;;2.28;100.00;98887.00;4846239;29;19963;-68
2022/01/20 07:21:38;;;;;;;;;;;;;;;2.27;100.00;98893.69;4847533;29;19960;-68
2022/01/20 07:24:12;;;;;;;;;;;;;;;2.33;100.00;98892.34;4850797;29;20234;-68
2022/01/20 07:26:39;;;;;;;;;;;;;;;2.21;100.00;98897.75;4847270;29;19953;-68
2022/01/20 07:29:27;;;;;;;;;;;;;;;2.24;100.00;98890.75;4844954;29;20367;-68
2022/01/20 07:31:54;;;;;;;;;;;;;;;2.27;100.00;98903.91;4831278;29;19950;-68
2022/01/20 07:34:22;;;;;;;;;;;;;;;2.25;100.00;98904.22;4817099;29;19983;-68
2022/01/20 07:36:49;;;;;;;;;;;;;;;2.20;100.00;98914.63;4824548;29;19958;-68
2022/01/20 07:39:17;;;;;;;;;;;;;;;2.25;100.00;98912.50;4830731;29;19971;-68
2022/01/20 07:41:44;;;;;;;;;;;;;;;2.24;100.00;98923.88;4812875;29;19970;-68
2022/01/20 07:44:35;;;;;;;;;;;;;;;2.30;100.00;98922.56;4825223;29;19961;-68
2022/01/20 07:47:21;;;;;;;;;;;;;;;2.30;100.00;98917.03;4812112;29;19988;-68
2022/01/20 07:49:48;;;;;;;;;;;;;;;2.35;100.00;98930.63;4817064;29;19956;-68
2022/01/20 07:52:16;;;;;;;;;;;;;;;2.49;100.00;98920.22;4815113;29;19978;-68
2022/01/20 07:54:43;;;;;;;;;;;;;;;2.50;100.00;98914.38;4816910;29;19959;-68
2022/01/20 07:57:11;;;;;;;;;;;;;;;2.57;100.00;98916.59;4833895;29;19958;-68
2022/01/20 07:59:38;;;;;;;;;;;;;;;2.59;100.00;98903.31;4821466;29;19965;-68
2022/01/20 08:02:08;;;;;;;;;;;;;;;2.57;100.00;98898.09;4809206;29;20009;-68
2022/01/20 08:04:35;;;;;;;;;;;;;;;2.58;100.00;98896.16;4825006;29;19986;-68
2022/01/20 08:07:08;;;;;;;;;;;;;;;2.62;100.00;98905.38;4808330;29;19962;-68
2022/01/20 08:09:38;;;;;;;;;;;;;;;2.69;100.00;98897.41;4815231;29;19954;-68
2022/01/20 08:12:19;;;;;;;;;;;;;;;2.75;100.00;98903.56;4812561;29;19969;-68
2022/01/20 08:14:55;;;;;;;;;;;;;;;2.81;100.00;98908.56;4810187;29;19958;-68
2022/01/20 08:17:37;;;;;;;;;;;;;;;2.90;100.00;98916.81;4815349;29;20336;-68
2022/01/20 08:20:06;;;;;;;;;;;;;;;2.94;100.00;98909.47;4830605;29;19957;-68
2022/01/20 08:22:36;;;;;;;;;;;;;;;3.00;100.00;98913.66;4813957;29;19968;-68
2022/01/20 08:25:08;;;;;;;;;;;;;;;3.07;100.00;98913.94;4828943;29;19965;-68
2022/01/20 08:27:37;;;;;;;;;;;;;;;3.10;100.00;98914.09;4825309;29;19958;-69
2022/01/20 08:30:08;;;;;;;;;;;;;;;3.17;100.00;98919.91;4832420;29;19961;-68
2022/01/20 08:32:36;;;;;;;;;;;;;;;3.25;100.00;98924.56;4816456;29;19961;-68
2022/01/20 08:35:39;;;;;;;;;;;;;;;3.31;100.00;98930.72;4737961;30;19962;-68
2022/01/20 08:38:17;;;;;;;;;;;;;;;3.33;100.00;98929.22;4802517;29;19959;-69
2022/01/20 08:40:45;;;;;;;;;;;;;;;3.30;100.00;98937.41;4815319;29;19957;-68
2022/01/20 08:43:13;;;;;;;;;;;;;;;3.30;100.00;98938.19;4815074;29;19984;-68
2022/01/20 08:45:44;;;;;;;;;;;;;;;3.29;100.00;98944.06;4813743;29;19968;-68
2022/01/20 08:48:13;;;;;;;;;;;;;;;3.33;100.00;98946.97;4814658;29;19968;-68
2022/01/20 08:51:08;;;;;;;;;;;;;;;3.42;100.00;98942.19;4827126;29;19950;-69
2022/01/20 08:53:46;;;;;;;;;;;;;;;3.45;100.00;98936.00;4813043;29;19960;-68
2022/01/20 08:56:14;;;;;;;;;;;;;;;3.47;100.00;98942.81;4815947;29;19965;-69
2022/01/20 08:58:41;;;;;;;;;;;;;;;3.43;100.00;98933.56;4813946;29;20266;-68
2022/01/20 09:01:09;;;;;;;;;;;;;;;3.46;100.00;98937.59;4812872;29;19952;-68
2022/01/20 09:03:36;;;;;;;;;;;;;;;3.49;100.00;98935.00;4813499;29;19953;-68
2022/01/20 09:06:06;;;;;;;;;;;;;;;3.51;100.00;98929.09;4813598;29;19963;-68
2022/01/20 09:08:42;;;;;;;;;;;;;;;3.58;100.00;98941.25;4824534;29;19958;-68
2022/01/20 09:11:20;;;;;;;;;;;;;;;3.68;100.00;98924.25;4815711;29;19968;-69
2022/01/20 09:17:14;;;;;;;;;;;;;;;3.80;100.00;98943.69;4830862;29;20339;-68
2022/01/20 09:19:42;;;;;;;;;;;;;;;3.80;100.00;98938.16;4809901;29;20387;-68
2022/01/20 09:22:11;;;;;;;;;;;;;;;3.84;100.00;98921.69;4825687;29;19969;-67
2022/01/20 09:24:40;;;;;;;;;;;;;;;3.88;100.00;98919.88;4806143;29;20008;-67
2022/01/20 09:27:09;;;;;;;;;;;;;;;3.91;100.00;98917.22;4816023;29;19954;-68
2022/01/20 09:29:37;;;;;;;;;;;;;;;3.92;100.00;98910.56;4835066;29;20254;-68
2022/01/20 09:32:17;;;;;;;;;;;;;;;4.00;100.00;98906.09;4815274;29;19988;-68
2022/01/20 09:34:46;;;;;;;;;;;;;;;4.04;100.00;98908.97;4814620;29;19984;-68
2022/01/20 09:37:14;;;;;;;;;;;;;;;4.06;100.00;98909.47;4813667;29;19956;-68
2022/01/20 09:39:46;;;;;;;;;;;;;;;4.12;100.00;98905.31;4810733;29;19988;-68
2022/01/20 09:42:25;;;;;;;;;;;;;;;4.12;100.00;98911.66;4813007;29;20489;-69
2022/01/20 09:44:54;;;;;;;;;;;;;;;4.15;100.00;98907.41;4807575;29;19959;-68
2022/01/20 09:47:24;;;;;;;;;;;;;;;4.20;100.00;98904.44;4808365;29;19971;-68
2022/01/20 09:50:21;;;;;;;;;;;;;;;4.23;100.00;98912.84;4808252;29;19956;-69
2022/01/20 09:53:08;;;;;;;;;;;;;;;4.18;100.00;98918.59;4825858;29;19969;-68
2022/01/20 09:55:49;;;;;;;;;;;;;;;4.21;100.00;98914.34;4812938;29;19956;-69
2022/01/20 09:58:17;;;;;;;;;;;;;;;4.22;100.00;98916.78;4803309;29;19959;-68
2022/01/20 10:00:46;;;;;;;;;;;;;;;4.28;100.00;98912.63;4811828;29;19963;-68
2022/01/20 10:03:15;;;;;;;;;;;;;;;4.30;100.00;98920.59;4833221;29;20280;-68
2022/01/20 10:05:48;;;;;;;;;;;;;;;4.35;100.00;98918.41;4810132;29;19969;-68
2022/01/20 10:08:17;;;;;;;;;;;;;;;4.36;100.00;98919.22;4811861;29;20539;-67
2022/01/20 10:11:10;;;;;;;;;;;;;;;4.37;100.00;98918.91;4825761;29;19968;-68
2022/01/20 10:13:59;;;;;;;;;;;;;;;4.42;100.00;98920.66;4824834;29;19962;-68
2022/01/20 10:16:56;;;;;;;;;;;;;;;4.50;100.00;98919.72;4784692;29;19963;-68
2022/01/20 10:19:29;;;;;;;;;;;;;;;4.54;100.00;98920.66;4828004;29;20337;-68
2022/01/20 10:22:10;;;;;;;;;;;;;;;4.58;100.00;98911.31;4827624;29;20349;-68
2022/01/20 10:24:57;;;;;;;;;;;;;;;4.59;100.00;98914.91;4842694;29;19961;-68
2022/01/20 10:27:45;;;;;;;;;;;;;;;4.60;100.00;98914.56;4827678;29;19958;-68
2022/01/20 10:30:13;;;;;;;;;;;;;;;4.61;100.00;98913.41;4827898;29;19961;-68
2022/01/20 10:32:42;;;;;;;;;;;;;;;4.54;100.00;98906.81;4827684;29;19961;-68
2022/01/20 10:35:11;;;;;;;;;;;;;;;4.58;100.00;98904.97;4827862;29;19977;-68
2022/01/20 10:37:40;;;;;;;;;;;;;;;4.62;100.00;98886.53;4843700;29;19962;-68
2022/01/20 10:40:13;;;;;;;;;;;;;;;4.71;100.00;98883.63;4818895;29;19958;-69
2022/01/20 10:42:46;;;;;;;;;;;;;;;4.72;100.00;98879.72;4824099;29;19983;-68
2022/01/20 10:45:27;;;;;;;;;;;;;;;4.77;100.00;98874.75;4808679;29;19966;-68
2022/01/20 10:47:58;;;;;;;;;;;;;;;4.76;100.00;98866.78;4811395;29;22153;-68
2022/01/20 10:50:29;;;;;;;;;;;;;;;4.80;100.00;98859.41;4805846;29;19957;-68
2022/01/20 10:53:02;;;;;;;;;;;;;;;4.85;100.00;98854.44;4815162;29;20244;-68
2022/01/20 10:55:32;;;;;;;;;;;;;;;4.84;100.00;98861.13;4810018;29;19963;-68
2022/01/20 10:58:09;;;;;;;;;;;;;;;4.84;100.00;98849.25;4811913;29;19950;-68
2022/01/20 11:00:47;;;;;;;;;;;;;;;4.87;100.00;98843.00;4814018;29;19965;-69
2022/01/20 11:03:16;;;;;;;;;;;;;;;4.89;100.00;98829.63;4808506;29;20241;-68
2022/01/20 11:05:48;;;;;;;;;;;;;;;4.94;100.00;98837.72;4812862;29;19955;-68
2022/01/20 11:08:22;;;;;;;;;;;;;;;4.98;100.00;98833.06;4807802;29;19967;-68
2022/01/20 11:10:51;;;;;;;;;;;;;;;4.95;100.00;98833.75;4828414;29;19966;-68
2022/01/20 11:13:31;;;;;;;;;;;;;;;4.99;100.00;98824.41;4833092;29;20951;-69
2022/01/20 11:15:58;;;;;;;;;;;;;;;5.01;100.00;98824.06;4808295;29;19958;-69
2022/01/20 11:18:29;;;;;;;;;;;;;;;5.05;100.00;98819.44;4806723;29;19955;-68
2022/01/20 11:21:00;;;;;;;;;;;;;;;5.09;100.00;98814.78;4832293;29;19954;-68
2022/01/20 11:23:42;;;;;;;;;;;;;;;5.17;100.00;98809.13;4809157;29;19970;-68
2022/01/20 11:26:28;;;;;;;;;;;;;;;5.21;100.00;98796.19;4824078;29;19959;-68
2022/01/20 11:29:07;;;;;;;;;;;;;;;5.27;100.00;98793.97;4815145;29;19959;-68
2022/01/20 11:31:49;;;;;;;;;;;;;;;5.32;100.00;98794.53;4811391;29;19957;-68
2022/01/20 11:34:36;;;;;;;;;;;;;;;5.35;100.00;98795.00;4813159;29;19980;-68
2022/01/20 11:37:08;;;;;;;;;;;;;;;5.45;100.00;98791.72;4827845;29;20530;-68
2022/01/20 11:39:45;;;;;;;;;;;;;;;5.53;100.00;98783.25;4829688;29;19960;-68
2022/01/20 11:42:20;;;;;;;;;;;;;;;5.60;100.00;98777.91;4834280;29;19960;-68
2022/01/20 11:44:47;;;;;;;;;;;;;;;5.63;100.00;98776.38;4842359;29;19953;-68
2022/01/20 11:47:14;;;;;;;;;;;;;;;5.74;100.00;98761.66;4831655;29;20245;-68
2022/01/20 11:49:45;;;;;;;;;;;;;;;5.90;100.00;98759.75;4823415;29;19951;-68
2022/01/20 11:52:23;;;;;;;;;;;;;;;6.13;100.00;98750.81;4831207;29;19962;-69
2022/01/20 11:54:51;;;;;;;;;;;;;;;6.27;100.00;98751.97;4828286;29;19960;-68
2022/01/20 11:57:21;;;;;;;;;;;;;;;6.28;100.00;98755.56;4827287;29;19953;-68
2022/01/20 11:59:55;;;;;;;;;;;;;;;6.31;100.00;98757.63;4832857;29;19950;-68
2022/01/20 12:02:27;;;;;;;;;;;;;;;6.22;100.00;98752.25;4826529;29;19968;-69
2022/01/20 12:04:58;;;;;;;;;;;;;;;6.23;100.00;98750.28;4810389;29;19958;-69
2022/01/20 12:07:34;;;;;;;;;;;;;;;6.24;100.00;98740.78;4808816;29;19980;-68
2022/01/20 12:10:07;;;;;;;;;;;;;;;6.24;100.00;98729.66;4826734;29;20034;-69
2022/01/20 12:12:35;;;;;;;;;;;;;;;6.30;100.00;98728.25;4826495;29;19960;-68
2022/01/20 12:15:06;;;;;;;;;;;;;;;6.41;100.00;98727.31;4826299;29;19951;-68
2022/01/20 12:17:33;;;;;;;;;;;;;;;6.63;100.00;98714.75;4825432;29;19958;-68
2022/01/20 12:20:01;;;;;;;;;;;;;;;6.74;100.00;98715.00;4829537;29;20004;-68
2022/01/20 12:22:28;;;;;;;;;;;;;;;6.63;100.00;98715.56;4826774;29;20471;-68
2022/01/20 12:24:56;;;;;;;;;;;;;;;6.68;100.00;98711.69;4822418;29;19987;-69
2022/01/20 12:27:25;;;;;;;;;;;;;;;6.62;100.00;98702.03;4826375;29;19960;-68
2022/01/20 12:29:52;;;;;;;;;;;;;;;6.74;100.00;98696.34;4825006;29;20076;-69
2022/01/20 12:32:21;;;;;;;;;;;;;;;6.86;100.00;98693.44;4825406;29;19958;-69
2022/01/20 12:35:02;;;;;;;;;;;;;;;6.95;100.00;98688.47;4843537;29;19977;-69
2022/01/20 12:37:36;;;;;;;;;;;;;;;6.76;100.00;98679.31;4846675;29;19961;-68
2022/01/20 12:40:05;;;;;;;;;;;;;;;6.64;100.00;98674.69;4851777;29;20249;-69
2022/01/20 12:42:37;;;;;;;;;;;;;;;6.58;100.00;98671.38;4847335;29;19958;-69
2022/01/20 12:47:51;;;;;;;;;;;;;;;6.51;100.00;98657.31;4851356;29;19966;-69
2022/01/20 12:50:18;;;;;;;;;;;;;;;6.39;100.00;98659.41;4847788;29;19954;-69
2022/01/20 12:52:49;;;;;;;;;;;;;;;6.36;100.00;98654.56;4851020;29;20233;-68
2022/01/20 12:55:17;;;;;;;;;;;;;;;6.46;100.00;98638.16;4849039;29;19961;-68
2022/01/20 12:57:45;;;;;;;;;;;;;;;6.47;100.00;98638.97;4851430;29;20336;-69
2022/01/20 13:00:12;;;;;;;;;;;;;;;6.51;100.00;98631.50;4849948;29;20345;-69
2022/01/20 13:02:39;;;;;;;;;;;;;;;6.55;100.00;98618.53;4835618;29;19997;-69
2022/01/20 13:05:07;;;;;;;;;;;;;;;6.63;100.00;98608.38;4847201;29;19971;-69
2022/01/20 13:07:37;;;;;;;;;;;;;;;6.72;100.00;98598.66;4852509;29;19957;-69
2022/01/20 13:10:31;;;;;;;;;;;;;;;6.75;100.00;98608.22;4849628;29;20932;-69
2022/01/20 13:13:05;;;;;;;;;;;;;;;6.75;100.00;98600.69;4851496;29;19954;-69
2022/01/20 13:15:32;;;;;;;;;;;;;;;6.79;100.00;98593.25;4852192;29;20232;-69
2022/01/20 13:18:01;;;;;;;;;;;;;;;6.73;100.00;98596.66;4848679;29;19962;-69
2022/01/20 13:20:30;;;;;;;;;;;;;;;6.76;100.00;98587.59;4848762;29;20254;-69
2022/01/20 13:22:59;;;;;;;;;;;;;;;6.71;100.00;98585.91;4850809;29;19957;-69
2022/01/20 13:25:30;;;;;;;;;;;;;;;6.74;100.00;98587.16;4849582;29;20438;-69
2022/01/20 13:27:59;;;;;;;;;;;;;;;6.66;100.00;98594.53;4851112;29;19959;-69
2022/01/20 13:30:26;;;;;;;;;;;;;;;6.70;100.00;98598.19;4849032;29;19961;-69
2022/01/20 13:32:54;;;;;;;;;;;;;;;6.69;100.00;98593.81;4853053;29;19948;-69
2022/01/20 13:35:21;;;;;;;;;;;;;;;6.68;100.00;98588.59;4849784;29;19976;-69
2022/01/20 13:37:58;;;;;;;;;;;;;;;6.72;100.00;98590.31;4848305;29;19958;-68
2022/01/20 13:40:26;;;;;;;;;;;;;;;6.68;100.00;98592.19;4850236;29;19970;-72
2022/01/20 13:45:43;;;;;;;;;;;;;;;6.58;100.00;98595.56;4853478;29;20588;-72
2022/01/20 13:48:12;;;;;;;;;;;;;;;6.56;100.00;98595.13;4848371;29;19957;-72
2022/01/20 13:50:41;;;;;;;;;;;;;;;6.49;100.00;98597.75;4851311;29;19961;-72
2022/01/20 13:53:16;;;;;;;;;;;;;;;6.46;100.00;98606.78;4849534;29;20446;-72
2022/01/20 13:55:44;;;;;;;;;;;;;;;6.38;100.00;98600.28;4848352;29;19957;-73
2022/01/20 13:58:34;;;;;;;;;;;;;;;6.43;100.00;98597.22;4846314;29;20368;-69
2022/01/20 14:01:06;;;;;;;;;;;;;;;6.46;100.00;98593.72;4841332;29;19956;-69
2022/01/20 14:03:34;;;;;;;;;;;;;;;6.47;100.00;98594.53;4853943;29;20239;-69
2022/01/20 14:06:02;;;;;;;;;;;;;;;6.28;100.00;98597.28;4851311;29;19954;-69
2022/01/20 14:08:29;;;;;;;;;;;;;;;6.28;100.00;98592.53;4842265;29;20253;-69
2022/01/20 14:10:56;;;;;;;;;;;;;;;6.36;100.00;98593.47;4849916;29;19961;-69
2022/01/20 14:13:25;;;;;;;;;;;;;;;6.17;100.00;98579.56;4851414;29;19956;-68
2022/01/20 14:15:53;;;;;;;;;;;;;;;6.00;100.00;98600.19;4850019;29;19953;-69
2022/01/20 14:18:22;;;;;;;;;;;;;;;5.96;100.00;98585.44;4843882;29;20017;-69
2022/01/20 14:20:49;;;;;;;;;;;;;;;5.99;100.00;98579.16;4850383;29;20361;-69
2022/01/20 14:23:16;;;;;;;;;;;;;;;5.99;100.00;98565.28;4852795;29;19956;-69
2022/01/20 14:25:46;;;;;;;;;;;;;;;5.80;100.00;98568.75;4846998;29;19973;-69
2022/01/20 14:28:14;;;;;;;;;;;;;;;5.72;100.00;98553.09;4831720;29;19954;-68
2022/01/20 14:30:42;;;;;;;;;;;;;;;5.85;100.00;98548.28;4846637;29;19963;-68
2022/01/20 14:33:11;;;;;;;;;;;;;;;5.77;100.00;98560.38;4844885;29;19958;-68
2022/01/20 14:35:39;;;;;;;;;;;;;;;5.71;100.00;98551.50;4854814;29;19958;-68
2022/01/20 14:38:23;;;;;;;;;;;;;;;5.62;100.00;98555.63;4854812;29;20249;-68
2022/01/20 14:40:54;;;;;;;;;;;;;;;5.60;100.00;98549.66;4854799;29;19963;-69
2022/01/20 14:43:22;;;;;;;;;;;;;;;5.62;100.00;98547.31;4852598;29;19957;-69
2022/01/20 14:45:50;;;;;;;;;;;;;;;5.53;100.00;98552.22;4853342;29;19969;-69
2022/01/20 14:48:18;;;;;;;;;;;;;;;5.52;100.00;98554.22;4851247;29;19952;-69
2022/01/20 14:50:46;;;;;;;;;;;;;;;5.56;100.00;98538.44;4853884;29;19959;-68
2022/01/20 14:53:14;;;;;;;;;;;;;;;5.53;100.00;98527.25;4855242;29;19959;-68
2022/01/20 14:55:41;;;;;;;;;;;;;;;5.47;100.00;98521.19;4853733;29;20006;-68
2022/01/20 14:58:09;;;;;;;;;;;;;;;5.41;100.00;98528.16;4854030;29;21254;-68
2022/01/20 15:00:37;;;;;;;;;;;;;;;5.46;100.00;98516.81;4851712;29;19981;-68
2022/01/20 15:03:04;;;;;;;;;;;;;;;5.37;100.00;98518.16;4854444;29;19953;-68
2022/01/20 15:05:32;;;;;;;;;;;;;;;5.32;100.00;98510.91;4851371;29;19971;-68
2022/01/20 15:07:59;;;;;;;;;;;;;;;5.27;100.00;98512.00;4853487;29;19961;-68
2022/01/20 15:10:27;;;;;;;;;;;;;;;5.18;100.00;98500.25;4851667;29;19959;-68
2022/01/20 15:13:00;;;;;;;;;;;;;;;5.10;100.00;98508.75;4852601;29;19952;-68
2022/01/20 15:15:28;;;;;;;;;;;;;;;5.09;100.00;98496.06;4854289;29;19957;-68
2022/01/20 15:17:57;;;;;;;;;;;;;;;5.02;100.00;98491.16;4854724;29;19954;-68
2022/01/20 15:20:33;;;;;;;;;;;;;;;5.06;100.00;98485.72;4851290;29;19960;-69
2022/01/20 15:23:00;;;;;;;;;;;;;;;5.04;100.00;98476.91;4852497;29;19954;-69
2022/01/20 15:25:28;;;;;;;;;;;;;;;5.05;100.00;98481.31;4850982;29;20841;-68
2022/01/20 15:27:55;;;;;;;;;;;;;;;5.02;100.00;98470.94;4854862;29;19948;-68
2022/01/20 15:30:22;;;;;;;;;;;;;;;4.93;100.00;98470.31;4837727;29;19950;-69
2022/01/20 15:32:50;;;;;;;;;;;;;;;4.92;100.00;98463.16;4838005;29;19950;-68
2022/01/20 15:35:17;;;;;;;;;;;;;;;4.86;100.00;98465.41;4844412;29;20546;-69
2022/01/20 15:37:44;;;;;;;;;;;;;;;4.83;100.00;98477.19;4844828;29;19959;-68
2022/01/20 15:40:13;;;;;;;;;;;;;;;4.81;100.00;98468.44;4846654;29;20352;-68
2022/01/20 15:42:40;;;;;;;;;;;;;;;4.89;100.00;98474.97;4847002;29;19949;-68
2022/01/20 15:45:08;;;;;;;;;;;;;;;4.81;100.00;98473.16;4846798;29;19972;-68
2022/01/20 15:47:36;;;;;;;;;;;;;;;4.74;100.00;98482.09;4848704;29;19960;-68
2022/01/20 15:50:05;;;;;;;;;;;;;;;4.58;100.00;98484.81;4850992;29;19951;-68
2022/01/20 15:52:33;;;;;;;;;;;;;;;4.52;100.00;98485.44;4853199;29;19951;-69
2022/01/20 15:55:00;;;;;;;;;;;;;;;4.47;100.00;98475.44;4845185;29;19958;-69
2022/01/20 15:57:27;;;;;;;;;;;;;;;4.48;100.00;98477.03;4842686;29;19959;-69
2022/01/20 15:59:55;;;;;;;;;;;;;;;4.50;100.00;98484.97;4839994;29;20240;-68
2022/01/20 16:02:22;;;;;;;;;;;;;;;4.31;100.00;98485.63;4840577;29;19952;-68
2022/01/20 16:04:49;;;;;;;;;;;;;;;4.18;100.00;98483.28;4843826;29;19978;-68
2022/01/20 16:07:19;;;;;;;;;;;;;;;4.06;100.00;98475.03;4848967;29;20316;-68
2022/01/20 16:09:46;;;;;;;;;;;;;;;4.06;100.00;98478.56;4849866;29;19962;-69
2022/01/20 16:12:13;;;;;;;;;;;;;;;4.10;100.00;98471.22;4847799;29;19954;-68
2022/01/20 16:14:41;;;;;;;;;;;;;;;4.01;100.00;98473.28;4849959;29;20357;-68
2022/01/20 16:17:08;;;;;;;;;;;;;;;3.98;100.00;98476.78;4845706;29;19957;-68
2022/01/20 16:19:36;;;;;;;;;;;;;;;4.00;100.00;98466.16;4848119;29;19991;-69
2022/01/20 16:22:04;;;;;;;;;;;;;;;3.95;100.00;98463.63;4846894;29;19967;-69
2022/01/20 16:24:32;;;;;;;;;;;;;;;3.90;100.00;98467.47;4849164;29;20400;-68
2022/01/20 16:26:59;;;;;;;;;;;;;;;3.87;100.00;98465.38;4845189;29;20592;-68
2022/01/20 16:29:27;;;;;;;;;;;;;;;3.86;100.00;98468.50;4846499;29;19955;-68
2022/01/20 16:31:54;;;;;;;;;;;;;;;3.87;100.00;98464.56;4845176;29;20027;-68
2022/01/20 16:34:22;;;;;;;;;;;;;;;3.87;100.00;98467.34;4848264;29;19979;-68
2022/01/20 16:36:49;;;;;;;;;;;;;;;3.92;100.00;98478.16;4848193;29;19963;-69
2022/01/20 16:39:16;;;;;;;;;;;;;;;3.91;100.00;98471.81;4846893;29;19958;-68
2022/01/20 16:41:44;;;;;;;;;;;;;;;3.84;100.00;98473.56;4848576;29;19953;-68
2022/01/20 16:44:11;;;;;;;;;;;;;;;3.75;100.00;98470.94;4844707;29;20354;-68
2022/01/20 16:46:38;;;;;;;;;;;;;;;3.71;100.00;98475.56;4845111;29;19972;-68
2022/01/20 16:49:06;;;;;;;;;;;;;;;3.71;100.00;98477.53;4853103;29;19962;-68
2022/01/20 16:51:33;;;;;;;;;;;;;;;3.69;100.00;98475.09;4852821;29;19960;-68
2022/01/20 16:54:01;;;;;;;;;;;;;;;3.61;100.00;98469.72;4853566;29;19961;-68
2022/01/20 16:56:28;;;;;;;;;;;;;;;3.54;100.00;98481.38;4842742;29;20253;-68
2022/01/20 16:58:55;;;;;;;;;;;;;;;3.48;100.00;98476.41;4852662;29;19963;-68
2022/01/20 17:01:24;;;;;;;;;;;;;;;3.41;100.00;98476.19;4852676;29;19962;-68
2022/01/20 17:03:52;;;;;;;;;;;;;;;3.45;100.00;98474.34;4850457;29;20235;-68
2022/01/20 17:06:19;;;;;;;;;;;;;;;3.46;100.00;98482.28;4854648;29;19969;-68
2022/01/20 17:08:46;;;;;;;;;;;;;;;3.41;100.00;98482.50;4851571;29;20288;-68
2022/01/20 17:11:14;;;;;;;;;;;;;;;3.41;100.00;98478.94;4851042;29;19955;-68
2022/01/20 17:13:41;;;;;;;;;;;;;;;3.38;100.00;98476.88;4850557;29;19955;-69
2022/01/20 17:16:09;;;;;;;;;;;;;;;3.33;100.00;98481.47;4847937;29;19950;-68
2022/01/20 17:18:36;;;;;;;;;;;;;;;3.30;100.00;98479.41;4851083;29;19958;-68
2022/01/20 17:21:04;;;;;;;;;;;;;;;3.27;100.00;98480.13;4844581;29;19959;-68
2022/01/20 17:23:32;;;;;;;;;;;;;;;3.26;100.00;98484.03;4851940;29;19962;-69
2022/01/20 17:26:01;;;;;;;;;;;;;;;3.30;100.00;98486.91;4853192;29;20372;-68
2022/01/20 17:28:29;;;;;;;;;;;;;;;3.39;100.00;98484.00;4853422;29;19966;-68
2022/01/20 17:30:56;;;;;;;;;;;;;;;3.37;100.00;98480.78;4850148;29;19954;-68
2022/01/20 17:33:24;;;;;;;;;;;;;;;3.29;100.00;98485.28;4852260;29;19971;-68
2022/01/20 17:35:52;;;;;;;;;;;;;;;3.25;100.00;98487.13;4850352;29;19961;-68
2022/01/20 17:38:19;;;;;;;;;;;;;;;3.20;100.00;98492.88;4847618;29;19962;-69
2022/01/20 17:40:48;;;;;;;;;;;;;;;3.18;100.00;98492.41;4847553;29;19981;-68
2022/01/20 17:43:16;;;;;;;;;;;;;;;3.15;100.00;98491.16;4849940;29;19958;-69
2022/01/20 17:45:44;;;;;;;;;;;;;;;3.17;100.00;98499.09;4849793;29;19986;-68
2022/01/20 17:48:12;;;;;;;;;;;;;;;3.11;100.00;98501.28;4852582;29;19951;-68
2022/01/20 17:50:39;;;;;;;;;;;;;;;3.09;100.00;98500.00;4863497;29;19955;-68
2022/01/20 17:53:07;;;;;;;;;;;;;;;3.09;100.00;98506.34;4862663;29;20345;-68
2022/01/20 17:55:34;;;;;;;;;;;;;;;3.10;100.00;98513.50;4863083;29;20334;-68
2022/01/20 17:58:04;;;;;;;;;;;;;;;3.12;100.00;98519.47;4864059;29;19951;-68
2022/01/20 18:00:31;;;;;;;;;;;;;;;3.15;100.00;98521.56;4862628;29;19963;-68
2022/01/20 18:03:00;;;;;;;;;;;;;;;3.14;100.00;98522.69;4861443;29;19966;-68
2022/01/20 18:05:27;;;;;;;;;;;;;;;3.15;100.00;98529.03;4864043;29;19971;-68
2022/01/20 18:07:55;;;;;;;;;;;;;;;3.10;100.00;98523.72;4863619;29;19959;-68
2022/01/20 18:10:22;;;;;;;;;;;;;;;3.04;100.00;98528.66;4863505;29;19961;-68
2022/01/20 18:12:50;;;;;;;;;;;;;;;3.00;100.00;98533.28;4864459;29;19959;-68
2022/01/20 18:15:17;;;;;;;;;;;;;;;3.08;100.00;98537.09;4863836;29;19951;-68
2022/01/20 18:17:46;;;;;;;;;;;;;;;3.06;100.00;98542.13;4843473;29;19958;-68
2022/01/20 18:20:14;;;;;;;;;;;;;;;3.09;100.00;98544.22;4853239;29;19952;-68
2022/01/20 18:22:43;;;;;;;;;;;;;;;3.12;100.00;98543.53;4851368;29;19957;-68
2022/01/20 18:25:11;;;;;;;;;;;;;;;3.18;100.00;98544.91;4863504;29;19972;-68
2022/01/20 18:27:39;;;;;;;;;;;;;;;3.17;100.00;98552.41;4863361;29;20229;-68
2022/01/20 18:30:11;;;;;;;;;;;;;;;3.18;100.00;98558.72;4862712;29;19954;-68
2022/01/20 18:32:39;;;;;;;;;;;;;;;3.12;100.00;98552.63;4859066;29;19952;-68
2022/01/20 18:35:07;;;;;;;;;;;;;;;3.18;100.00;98554.00;4863153;29;19974;-68
2022/01/20 18:37:35;;;;;;;;;;;;;;;3.15;100.00;98549.19;4848580;29;19963;-68
2022/01/20 18:40:06;;;;;;;;;;;;;;;3.22;100.00;98563.25;4851304;29;19951;-68
2022/01/20 18:42:33;;;;;;;;;;;;;;;3.29;100.00;98559.91;4852805;29;20428;-69
2022/01/20 18:45:00;;;;;;;;;;;;;;;3.31;100.00;98558.41;4853533;29;19956;-68
2022/01/20 18:47:28;;;;;;;;;;;;;;;3.34;100.00;98556.91;4847618;29;19970;-68
2022/01/20 18:49:55;;;;;;;;;;;;;;;3.37;100.00;98556.22;4860516;29;19963;-68
2022/01/20 18:52:22;;;;;;;;;;;;;;;3.44;100.00;98558.41;4852110;29;19957;-68
2022/01/20 18:54:50;;;;;;;;;;;;;;;3.35;100.00;98557.72;4860497;29;19952;-68
2022/01/20 18:57:17;;;;;;;;;;;;;;;3.42;100.00;98552.44;4863178;29;19950;-68
2022/01/20 18:59:45;;;;;;;;;;;;;;;3.32;100.00;98548.16;4862279;29;19959;-68
2022/01/20 19:02:12;;;;;;;;;;;;;;;3.24;100.00;98554.59;4863456;29;19955;-68
2022/01/20 19:04:39;;;;;;;;;;;;;;;3.18;100.00;98542.13;4861510;29;19958;-68
2022/01/20 20:15:07;;;;;;;;;;;;;;;2.89;100.00;98517.47;1410707;27;20086;-69
2022/01/20 20:17:34;;;;;;;;;;;;;;;2.89;100.00;98514.69;4853191;29;19950;-69
2022/01/20 20:20:05;;;;;;;;;;;;;;;2.94;100.00;98531.06;4848510;29;19952;-68
2022/01/20 20:22:33;;;;;;;;;;;;;;;2.99;100.00;98537.16;4848509;29;19951;-68
2022/01/20 20:25:00;;;;;;;;;;;;;;;3.02;100.00;98536.50;4860486;29;20225;-68
2022/01/20 20:27:29;;;;;;;;;;;;;;;3.05;100.00;98541.34;4866513;29;19976;-68
2022/01/20 20:29:57;;;;;;;;;;;;;;;3.00;100.00;98549.84;4865503;29;19951;-69
